createdAt,value
2022-12-05T00:03:59.907Z,4.90
2022-12-05T00:09:04.829Z,5.13
2022-12-05T00:14:10.347Z,4.80
2022-12-05T00:19:15.716Z,4.45
2022-12-05T00:24:19.231Z,4.75
2022-12-05T00:29:22.833Z,4.50
2022-12-05T00:34:26.373Z,4.88
2022-12-05T00:39:30.699Z,4.95
2022-12-05T00:44:34.133Z,4.68
2022-12-05T00:49:37.467Z,4.63
2022-12-05T00:54:40.801Z,4.82
2022-12-05T00:59:44.283Z,4.75
2022-12-05T01:04:47.646Z,4.68
2022-12-05T01:09:51.049Z,4.75
2022-12-05T01:14:54.784Z,4.18
2022-12-05T01:19:58.164Z,4.18
2022-12-05T01:25:01.593Z,4.93
2022-12-05T01:30:05.634Z,4.57
2022-12-05T01:35:09.332Z,4.28
2022-12-05T01:40:12.913Z,4.40
2022-12-05T01:45:23.074Z,4.50
2022-12-05T01:50:26.471Z,4.40
2022-12-05T01:55:31.037Z,4.30
2022-12-05T02:00:34.526Z,4.50
2022-12-05T02:05:38.877Z,3.90
2022-12-05T02:10:50.760Z,4.45
2022-12-05T02:16:05.669Z,4.40
2022-12-05T02:21:24.786Z,4.15
2022-12-05T02:26:33.992Z,4.43
2022-12-05T02:32:41.726Z,4.40
2022-12-05T02:38:25.303Z,4.30
2022-12-05T02:44:05.685Z,4.28
2022-12-05T02:49:13.450Z,5.28
2022-12-05T02:54:43.198Z,5.57
2022-12-05T02:59:46.597Z,5.65
2022-12-05T03:04:50.014Z,5.32
2022-12-05T03:09:58.916Z,5.57
2022-12-05T03:15:26.179Z,5.68
2022-12-05T03:20:38.761Z,6.05
2022-12-05T03:26:00.558Z,6.63
2022-12-05T03:31:11.627Z,6.60
2022-12-05T03:36:28.577Z,7.32
2022-12-05T03:42:01.791Z,9.13
2022-12-05T03:47:20.689Z,7.65
2022-12-05T03:53:19.481Z,8.43
2022-12-05T03:58:30.873Z,8.27
2022-12-05T04:03:41.955Z,8.95
2022-12-05T04:08:53.993Z,9.75
2022-12-05T04:14:05.736Z,9.25
2022-12-05T04:19:09.331Z,8.90
2022-12-05T04:24:19.858Z,9.90
2022-12-05T04:29:32.157Z,10.20
2022-12-05T04:34:38.811Z,10.37
2022-12-05T04:39:51.415Z,11.05
2022-12-05T04:45:10.482Z,10.07
2022-12-05T04:50:16.707Z,11.80
2022-12-05T04:55:23.541Z,11.98
2022-12-05T05:00:30.486Z,13.90
2022-12-05T05:05:36.277Z,14.27
2022-12-05T05:10:52.636Z,13.95
2022-12-05T05:15:56.046Z,14.30
2022-12-05T05:20:59.915Z,14.45
2022-12-05T05:26:09.021Z,15.02
2022-12-05T05:31:13.932Z,14.70
2022-12-05T05:36:18.494Z,14.48
2022-12-05T05:41:25.063Z,14.70
2022-12-05T05:46:31.709Z,13.57
2022-12-05T05:51:35.061Z,13.20
2022-12-05T05:56:40.455Z,12.90
2022-12-05T06:01:43.799Z,12.88
2022-12-05T06:06:47.377Z,11.57
2022-12-05T06:11:50.732Z,12.40
2022-12-05T06:16:54.340Z,11.98
2022-12-05T06:21:57.999Z,10.20
2022-12-05T06:27:01.398Z,9.98
2022-12-05T06:32:05.238Z,8.63
2022-12-05T06:37:08.675Z,9.32
2022-12-05T06:42:12.066Z,8.05
2022-12-05T06:47:15.509Z,5.53
2022-12-05T06:52:18.734Z,4.50
2022-12-05T06:57:22.052Z,4.60
2022-12-05T07:02:25.412Z,5.03
2022-12-05T07:07:30.070Z,4.72
2022-12-05T07:12:34.553Z,4.60
2022-12-05T07:17:39.101Z,5.30
2022-12-05T07:22:42.309Z,5.10
2022-12-05T07:47:58.151Z,5.60
2022-12-05T07:53:01.578Z,5.45
2022-12-05T07:58:04.870Z,5.55
2022-12-05T08:03:08.042Z,6.22
2022-12-05T08:08:11.511Z,5.70
2022-12-05T08:13:14.924Z,6.63
2022-12-05T08:18:20.072Z,6.10
2022-12-05T08:23:25.262Z,6.25
2022-12-05T08:28:29.329Z,7.00
2022-12-05T08:33:32.826Z,6.32
2022-12-05T08:38:36.696Z,5.47
2022-12-05T08:43:40.746Z,4.78
2022-12-05T08:48:43.983Z,4.95
2022-12-05T08:53:47.480Z,5.82
2022-12-05T08:58:50.946Z,11.27
2022-12-05T09:03:54.544Z,6.30
2022-12-05T09:09:00.490Z,5.82
2022-12-05T09:14:04.628Z,6.30
2022-12-05T09:19:15.682Z,6.55
2022-12-05T09:24:19.113Z,6.28
2022-12-05T09:29:22.605Z,5.82
2022-12-05T09:34:25.890Z,5.72
2022-12-05T09:39:29.175Z,4.78
2022-12-05T09:44:47.578Z,5.35
2022-12-05T09:50:02.261Z,5.85
2022-12-05T09:55:13.416Z,4.88
2022-12-05T10:00:17.507Z,4.97
2022-12-05T10:05:47.993Z,6.05
2022-12-05T10:11:05.473Z,4.82
2022-12-05T10:16:17.730Z,5.32
2022-12-05T10:21:52.586Z,5.38
2022-12-05T10:27:02.807Z,5.45
2022-12-05T10:32:16.000Z,6.05
2022-12-05T10:37:24.005Z,5.43
2022-12-05T10:42:32.052Z,5.55
2022-12-05T10:47:36.447Z,6.32
2022-12-05T10:52:39.827Z,7.03
2022-12-05T10:57:43.246Z,7.30
2022-12-05T11:02:51.421Z,7.18
2022-12-05T11:07:56.944Z,8.27
2022-12-05T11:13:02.140Z,7.30
2022-12-05T11:18:20.068Z,7.65
2022-12-05T11:23:27.603Z,7.88
2022-12-05T11:28:37.791Z,8.27
2022-12-05T11:33:41.439Z,8.10
2022-12-05T11:38:45.019Z,8.27
2022-12-05T11:44:19.340Z,8.70
2022-12-05T11:50:03.457Z,8.57
2022-12-05T11:55:42.702Z,10.20
2022-12-05T12:01:08.343Z,10.45
2022-12-05T12:06:17.335Z,9.98
2022-12-05T12:11:29.772Z,9.70
2022-12-05T12:16:54.493Z,11.27
2022-12-05T12:22:20.678Z,9.65
2022-12-05T12:28:07.904Z,10.60
2022-12-05T12:33:31.780Z,10.32
2022-12-05T12:38:35.293Z,9.40
2022-12-05T12:44:10.736Z,11.57
2022-12-05T12:49:49.509Z,10.73
2022-12-05T12:55:11.407Z,10.20
2022-12-05T13:00:31.702Z,11.18
2022-12-05T13:05:54.270Z,11.50
2022-12-05T13:16:06.583Z,11.30
2022-12-05T13:21:10.674Z,12.35
2022-12-05T13:26:14.835Z,11.45
2022-12-05T13:31:18.925Z,13.10
2022-12-05T13:36:23.108Z,11.95
2022-12-05T13:41:43.082Z,11.70
2022-12-05T13:46:50.846Z,11.80
2022-12-05T13:51:54.423Z,12.13
2022-12-05T13:57:02.768Z,12.90
2022-12-05T14:02:44.772Z,13.52
2022-12-05T14:07:55.039Z,13.18
2022-12-05T14:13:23.622Z,12.77
2022-12-05T14:18:50.485Z,10.80
2022-12-05T14:24:13.410Z,10.82
2022-12-05T14:29:53.968Z,9.63
2022-12-05T14:35:15.612Z,9.80
2022-12-05T14:40:26.954Z,10.35
2022-12-05T14:45:38.536Z,11.18
2022-12-05T14:50:45.211Z,10.43
2022-12-05T14:56:00.632Z,9.98
2022-12-05T15:01:09.173Z,11.15
2022-12-05T15:06:16.168Z,11.10
2022-12-05T15:11:23.698Z,9.88
2022-12-05T15:16:30.492Z,10.55
2022-12-05T15:21:42.684Z,10.30
2022-12-05T15:26:54.656Z,10.02
2022-12-05T15:32:21.753Z,9.98
2022-12-05T15:37:33.763Z,10.00
2022-12-05T15:42:43.160Z,10.65
2022-12-05T15:47:48.476Z,10.07
2022-12-05T15:53:29.422Z,9.15
2022-12-05T15:58:42.471Z,9.20
2022-12-05T16:09:11.555Z,8.25
2022-12-05T16:14:31.105Z,7.72
2022-12-05T16:19:39.328Z,7.22
2022-12-05T16:24:59.612Z,7.38
2022-12-05T16:30:19.482Z,6.90
2022-12-05T16:35:35.009Z,6.90
2022-12-05T16:40:50.525Z,6.60
2022-12-05T16:45:56.996Z,7.13
2022-12-05T16:51:22.897Z,6.60
2022-12-05T16:56:27.680Z,5.88
2022-12-05T17:01:35.646Z,6.82
2022-12-05T17:06:42.140Z,6.22
2022-12-05T17:11:48.984Z,6.35
2022-12-05T17:16:53.188Z,6.25
2022-12-05T17:21:56.615Z,6.60
2022-12-05T17:27:00.176Z,7.63
2022-12-05T17:32:04.350Z,6.63
2022-12-05T17:37:08.518Z,7.38
2022-12-05T17:42:12.019Z,7.18
2022-12-05T17:47:18.175Z,6.53
2022-12-05T17:52:28.681Z,7.38
2022-12-05T17:57:35.119Z,7.05
2022-12-05T18:02:40.066Z,7.07
2022-12-05T18:07:45.515Z,6.78
2022-12-05T18:12:50.557Z,7.82
2022-12-05T18:17:53.955Z,6.78
2022-12-05T18:22:58.174Z,7.25
2022-12-05T18:28:01.960Z,7.28
2022-12-05T18:33:06.998Z,7.72
2022-12-05T18:38:11.413Z,6.88
2022-12-05T18:43:16.440Z,7.95
2022-12-05T18:53:45.126Z,7.30
2022-12-05T18:59:01.144Z,7.20
2022-12-05T19:04:06.348Z,7.70
2022-12-05T19:09:13.531Z,8.30
2022-12-05T19:14:19.734Z,7.65
2022-12-05T19:19:24.366Z,8.38
2022-12-05T19:24:28.823Z,8.07
2022-12-05T19:29:32.172Z,7.47
2022-12-05T19:34:35.526Z,8.95
2022-12-05T19:39:38.904Z,8.70
2022-12-05T19:44:42.198Z,8.50
2022-12-05T19:54:48.887Z,8.13
2022-12-05T19:59:52.232Z,9.18
2022-12-05T20:04:55.644Z,9.43
2022-12-05T20:10:00.203Z,8.57
2022-12-05T20:15:06.954Z,8.07
2022-12-05T20:20:11.132Z,8.38
2022-12-05T20:25:16.127Z,9.00
2022-12-05T20:30:20.981Z,8.57
2022-12-05T20:35:24.676Z,8.85
2022-12-05T20:40:28.016Z,8.82
2022-12-05T20:45:31.376Z,8.05
2022-12-05T20:50:34.944Z,8.57
2022-12-05T20:55:38.282Z,8.43
2022-12-05T21:00:42.823Z,8.55
2022-12-05T21:05:46.548Z,9.25
2022-12-05T21:10:51.994Z,9.73
2022-12-05T21:15:55.513Z,9.15
2022-12-05T21:21:01.071Z,10.18
2022-12-05T21:26:07.588Z,8.95
2022-12-05T21:31:16.709Z,9.35
2022-12-05T21:36:22.087Z,8.40
2022-12-05T21:41:26.668Z,9.02
2022-12-05T21:46:30.417Z,9.02
2022-12-05T21:51:33.909Z,8.48
2022-12-05T21:56:37.631Z,8.15
2022-12-05T22:01:41.116Z,7.65
2022-12-05T22:06:44.833Z,8.50
2022-12-05T22:11:48.294Z,8.40
2022-12-05T22:16:51.706Z,8.02
2022-12-05T22:21:54.995Z,7.47
2022-12-05T22:26:58.581Z,8.82
2022-12-05T22:32:01.971Z,8.07
2022-12-05T22:37:05.400Z,7.90
2022-12-05T22:42:09.632Z,8.88
2022-12-05T22:47:13.280Z,8.90
2022-12-05T22:52:17.326Z,8.80
2022-12-05T22:57:20.608Z,10.43
2022-12-05T23:02:24.187Z,9.38
2022-12-05T23:07:27.803Z,8.85
2022-12-05T23:12:31.398Z,9.80
2022-12-05T23:17:35.311Z,10.07
2022-12-05T23:22:38.766Z,13.55
2022-12-05T23:27:42.198Z,14.02
2022-12-05T23:32:45.786Z,14.40
2022-12-05T23:37:49.271Z,12.07
2022-12-05T23:42:53.099Z,12.32
2022-12-05T23:47:58.457Z,9.43
2022-12-05T23:53:05.225Z,10.77
2022-12-05T23:58:08.910Z,11.95
